Time;durP1;ratioP1;P1;durP2;ratioP2;P2;SDS_P1;SDS_P2;PMS_P1;PMS_P2;Temp;Humidity;BMP_temperature;BMP_pressure;BME280_temperature;BME280_humidity;BME280_pressure;Samples;Min_cycle;Max_cycle;Signal;HPM_P1;HPM_P2
2022/12/14 00:02:15;;;;;;;39.75;24.92;;;;;;;-4.05;93.61;100420.78;5094512;28;20479;-46
2022/12/14 00:04:41;;;;;;;40.78;25.27;;;;;;;-4.08;94.02;100420.53;5094809;28;20024;-42
2022/12/14 00:07:06;;;;;;;44.30;26.02;;;;;;;-4.06;94.82;100427.44;5094364;28;20031;-44
2022/12/14 00:09:31;;;;;;;43.20;26.05;;;;;;;-4.11;95.38;100412.75;5094817;28;20532;-41
2022/12/14 00:11:57;;;;;;;28.80;10.68;;;;;;;-4.05;95.72;100411.59;5095235;28;20031;-41
2022/12/14 00:14:22;;;;;;;31.77;10.70;;;;;;;-4.06;95.92;100402.28;5095250;28;20024;-43
2022/12/14 00:16:47;;;;;;;42.10;25.58;;;;;;;-4.16;95.63;100392.22;5114901;28;20024;-43
2022/12/14 00:19:13;;;;;;;39.50;24.67;;;;;;;-4.17;94.73;100395.47;5115212;28;20030;-46
2022/12/14 00:21:38;;;;;;;41.40;24.48;;;;;;;-4.22;94.30;100391.72;5113949;28;20027;-43
2022/12/14 00:24:03;;;;;;;38.88;24.73;;;;;;;-4.26;95.30;100388.09;5115272;28;20488;-45
2022/12/14 00:26:30;;;;;;;39.92;25.60;;;;;;;-4.30;95.96;100386.97;5115273;28;20032;-43
2022/12/14 00:28:57;;;;;;;42.25;25.33;;;;;;;-4.28;96.33;100386.22;5113961;28;20026;-45
2022/12/14 00:31:23;;;;;;;43.10;25.88;;;;;;;-4.40;96.19;100398.66;5115009;28;20035;-44
2022/12/14 00:33:52;;;;;;;40.97;25.35;;;;;;;-4.51;96.63;100397.78;5114630;28;20027;-42
2022/12/14 00:36:18;;;;;;;29.40;10.88;;;;;;;-4.38;96.84;100390.47;5114208;28;20015;-45
2022/12/14 00:38:43;;;;;;;24.33;10.68;;;;;;;-4.40;96.60;100393.63;5114720;28;20020;-43
2022/12/14 00:41:10;;;;;;;41.47;26.33;;;;;;;-4.56;96.59;100384.81;5114835;28;20034;-41
2022/12/14 00:43:35;;;;;;;42.70;25.80;;;;;;;-4.55;96.87;100380.69;5113647;28;20395;-43
2022/12/14 00:46:01;;;;;;;41.10;26.33;;;;;;;-4.70;96.92;100371.13;5114734;28;20482;-45
2022/12/14 00:48:26;;;;;;;40.92;25.52;;;;;;;-4.89;97.07;100366.19;5114302;28;20371;-44
2022/12/14 00:50:53;;;;;;;28.73;11.60;;;;;;;-4.73;97.52;100365.81;5113980;28;20489;-41
2022/12/14 00:53:20;;;;;;;41.15;26.70;;;;;;;-5.02;97.32;100360.88;5114702;28;20023;-43
2022/12/14 00:55:46;;;;;;;40.70;26.27;;;;;;;-5.03;97.45;100349.97;5113958;28;20028;-42
2022/12/14 00:58:13;;;;;;;42.70;26.45;;;;;;;-4.98;98.03;100350.38;5114092;28;20084;-41
2022/12/14 01:00:39;;;;;;;30.92;11.10;;;;;;;-4.94;97.67;100353.97;5113775;28;20039;-44
2022/12/14 01:03:05;;;;;;;41.65;25.92;;;;;;;-5.09;97.53;100346.94;5114154;28;20050;-45
2022/12/14 01:05:33;;;;;;;41.58;26.55;;;;;;;-5.21;98.24;100339.25;5113929;28;20416;-41
2022/12/14 01:07:58;;;;;;;42.72;26.20;;;;;;;-5.20;98.18;100342.63;5114434;28;20081;-44
2022/12/14 01:10:23;;;;;;;44.05;27.05;;;;;;;-5.18;98.23;100343.66;5113441;28;20027;-42
2022/12/14 01:12:49;;;;;;;41.05;12.48;;;;;;;-5.13;98.08;100332.38;5114027;28;20028;-42
2022/12/14 01:15:14;;;;;;;28.00;11.93;;;;;;;-5.13;97.59;100337.38;5114378;28;20027;-42
2022/12/14 01:17:39;;;;;;;40.70;26.02;;;;;;;-5.08;97.60;100328.59;5113070;28;20031;-43
2022/12/14 01:20:05;;;;;;;38.88;25.27;;;;;;;-5.10;97.85;100329.22;5114274;28;20035;-45
2022/12/14 01:22:30;;;;;;;40.17;25.48;;;;;;;-5.05;97.51;100331.34;5113921;28;20110;-43
2022/12/14 01:24:56;;;;;;;41.47;25.38;;;;;;;-4.99;96.96;100331.00;5113131;28;20031;-42
2022/12/14 01:27:21;;;;;;;40.80;26.05;;;;;;;-4.99;97.59;100316.78;5114013;28;20015;-42
2022/12/14 01:29:46;;;;;;;39.97;25.48;;;;;;;-5.03;97.32;100322.31;5113487;28;20019;-41
2022/12/14 01:32:12;;;;;;;37.90;25.20;;;;;;;-4.98;97.60;100322.72;5112972;28;20030;-45
2022/12/14 01:34:37;;;;;;;28.27;10.85;;;;;;;-4.98;97.24;100323.59;5113649;28;20027;-41
2022/12/14 01:37:02;;;;;;;41.25;25.88;;;;;;;-5.01;97.94;100318.31;5113980;28;20028;-46
2022/12/14 01:39:28;;;;;;;39.95;25.77;;;;;;;-5.04;97.20;100317.19;5113021;28;20032;-45
2022/12/14 01:41:53;;;;;;;44.55;25.83;;;;;;;-5.04;97.42;100317.19;5113432;28;20036;-41
2022/12/14 01:44:18;;;;;;;45.00;25.55;;;;;;;-5.04;97.25;100315.53;5113699;28;20038;-43
2022/12/14 01:46:48;;;;;;;42.10;25.67;;;;;;;-5.00;97.77;100320.06;5112486;28;20077;-43
2022/12/14 01:49:37;;;;;;;43.25;25.98;;;;;;;-5.02;97.74;100331.63;5113465;28;20080;-43
2022/12/14 01:52:08;;;;;;;24.98;11.10;;;;;;;-4.97;97.31;100325.34;5113306;28;20475;-46
2022/12/14 01:54:44;;;;;;;37.92;25.35;;;;;;;-4.94;95.95;100327.25;5112793;28;20031;-43
2022/12/14 01:57:12;;;;;;;40.53;24.30;;;;;;;-4.96;96.24;100316.16;5113383;28;20475;-43
2022/12/14 01:59:42;;;;;;;37.45;23.58;;;;;;;-4.93;95.84;100321.47;5112074;28;20413;-44
2022/12/14 02:02:09;;;;;;;37.17;24.70;;;;;;;-4.93;94.81;100318.97;5113585;28;20034;-46
2022/12/14 02:04:38;;;;;;;37.35;24.40;;;;;;;-4.95;95.06;100317.94;5113207;28;20042;-47
2022/12/14 02:07:04;;;;;;;38.40;25.33;;;;;;;-4.85;96.13;100314.56;5112664;28;20047;-43
2022/12/14 02:09:33;;;;;;;40.65;25.52;;;;;;;-4.85;96.68;100314.56;5113707;28;20055;-43
2022/12/14 02:12:18;;;;;;;38.28;24.27;;;;;;;-4.92;96.87;100305.59;5113201;28;20042;-42
2022/12/14 02:14:45;;;;;;;38.58;24.52;;;;;;;-4.95;95.79;100302.84;5112438;28;20034;-42
2022/12/14 02:17:12;;;;;;;34.78;23.73;;;;;;;-4.89;96.60;100305.88;5113396;28;20019;-41
2022/12/14 02:19:38;;;;;;;38.58;24.27;;;;;;;-4.97;96.86;100299.31;5112721;28;20374;-41
2022/12/14 02:22:22;;;;;;;28.77;10.35;;;;;;;-4.88;96.37;100295.06;5112586;28;20027;-45
2022/12/14 02:25:15;;;;;;;29.05;10.73;;;;;;;-4.85;96.00;100296.97;5113010;28;20035;-42
2022/12/14 02:28:07;;;;;;;28.95;10.60;;;;;;;-4.86;96.16;100297.72;5112343;28;20038;-41
2022/12/14 02:30:48;;;;;;;41.83;23.90;;;;;;;-4.88;95.93;100295.06;5112936;28;20060;-43
2022/12/14 02:33:48;;;;;;;39.08;23.02;;;;;;;-4.87;94.62;100288.41;5113384;28;20030;-43
2022/12/14 02:36:24;;;;;;;37.03;24.63;;;;;;;-4.89;94.95;100282.34;5112551;28;20032;-43
2022/12/14 02:39:37;;;;;;;40.92;24.58;;;;;;;-4.90;94.98;100283.13;5112696;28;20023;-42
2022/12/14 02:42:20;;;;;;;36.05;23.15;;;;;;;-4.91;94.17;100288.91;5112308;28;20118;-44
2022/12/14 02:45:00;;;;;;;35.85;23.92;;;;;;;-4.92;93.99;100289.66;5112775;28;20117;-41
2022/12/14 02:47:44;;;;;;;40.00;24.10;;;;;;;-4.89;93.92;100283.25;5113104;28;20027;-46
2022/12/14 02:50:19;;;;;;;38.53;24.02;;;;;;;-4.92;93.79;100287.16;5112534;28;20073;-42
2022/12/14 02:53:08;;;;;;;37.60;23.45;;;;;;;-4.92;93.66;100279.59;5112728;28;20115;-45
2022/12/14 02:55:47;;;;;;;36.90;24.02;;;;;;;-4.88;93.16;100277.47;5112319;28;20031;-41
2022/12/14 02:58:18;;;;;;;38.63;24.52;;;;;;;-4.84;93.49;100276.06;5112537;28;20526;-43
2022/12/14 03:00:44;;;;;;;37.53;23.83;;;;;;;-4.83;92.94;100278.75;5115046;28;20055;-43
2022/12/14 03:03:09;;;;;;;37.38;23.48;;;;;;;-4.78;93.74;100276.56;5116412;28;20134;-43
2022/12/14 03:05:34;;;;;;;39.15;24.60;;;;;;;-4.80;94.47;100278.09;5116386;28;20396;-42
2022/12/14 03:08:04;;;;;;;34.97;23.20;;;;;;;-4.77;95.24;100275.81;5116613;28;20050;-44
2022/12/14 03:10:51;;;;;;;35.00;12.38;;;;;;;-4.73;95.20;100279.47;5115806;28;20034;-42
2022/12/14 03:13:43;;;;;;;24.27;9.65;;;;;;;-4.70;94.39;100284.75;5116692;28;20028;-42
2022/12/14 03:16:20;;;;;;;40.53;23.73;;;;;;;-4.67;94.27;100280.84;5116290;28;20051;-46
2022/12/14 03:18:51;;;;;;;35.15;23.15;;;;;;;-4.69;92.59;100277.31;5115505;28;20080;-45
2022/12/14 03:21:24;;;;;;;37.15;23.13;;;;;;;-4.67;92.09;100275.81;5116219;28;20096;-42
2022/12/14 03:23:51;;;;;;;25.77;9.02;;;;;;;-4.59;92.66;100278.09;5115869;28;20107;-42
2022/12/14 03:26:33;;;;;;;;;;;;;;;-4.54;93.78;100271.78;5116278;28;20038;-44
2022/12/14 03:29:08;;;;;;;26.48;10.18;;;;;;;-4.53;93.70;100273.53;5116195;28;19911;-41
2022/12/14 03:31:41;;;;;;;35.95;23.48;;;;;;;-4.56;93.61;100254.03;5115225;28;20114;-42
2022/12/14 03:34:12;;;;;;;36.00;22.60;;;;;;;-4.59;93.18;100252.94;5116347;28;20031;-44
2022/12/14 03:36:52;;;;;;;35.58;23.08;;;;;;;-4.64;94.37;100248.41;5115851;28;20042;-44
2022/12/14 03:39:24;;;;;;;35.67;22.52;;;;;;;-4.62;94.47;100238.47;5115417;28;20020;-45
2022/12/14 03:42:01;;;;;;;34.33;22.80;;;;;;;-4.71;94.20;100247.78;5115821;28;20035;-42
2022/12/14 03:44:41;;;;;;;22.42;9.50;;;;;;;-4.57;94.08;100239.72;5115868;28;20031;-44
2022/12/14 03:47:18;;;;;;;25.70;9.65;;;;;;;-4.57;94.75;100231.28;5115316;28;20181;-44
2022/12/14 03:49:55;;;;;;;38.88;23.85;;;;;;;-4.66;94.57;100236.47;5115603;28;20058;-44
2022/12/14 03:52:26;;;;;;;39.90;28.25;;;;;;;-4.69;94.66;100227.03;5115320;28;20103;-42
2022/12/14 03:55:29;;;;;;;52.83;34.05;;;;;;;-4.70;94.15;100230.31;5115655;28;20047;-43
2022/12/14 03:58:08;;;;;;;52.70;33.25;;;;;;;-4.74;94.08;100230.81;5115171;28;20020;-43
2022/12/14 04:01:00;;;;;;;45.42;31.52;;;;;;;-4.68;94.24;100227.94;5114559;28;20509;-43
2022/12/14 04:03:47;;;;;;;47.25;29.63;;;;;;;-4.69;94.04;100231.19;5115758;28;20027;-43
2022/12/14 04:06:27;;;;;;;;;;;;;;;-4.58;95.09;100225.41;5115274;28;20027;-42
2022/12/14 04:09:34;;;;;;;26.15;10.75;;;;;;;-4.58;94.91;100221.97;5115371;28;19991;-42
2022/12/14 04:20:56;;;;;;;35.15;23.35;;;;;;;-4.76;95.81;100206.31;5114582;28;20046;-45
2022/12/14 04:26:17;;;;;;;27.63;10.57;;;;;;;-4.66;95.40;100194.59;5115328;28;20043;-43
2022/12/14 04:31:39;;;;;;;35.38;23.23;;;;;;;-4.71;95.54;100197.50;5115120;28;20037;-45
2022/12/14 04:34:05;;;;;;;;;;;;;;;-4.61;95.93;100194.09;5115385;28;20030;-44
2022/12/14 04:36:54;;;;;;;29.30;9.93;;;;;;;-4.61;95.42;100189.94;5114544;28;19912;-45
2022/12/14 04:39:43;;;;;;;34.95;23.08;;;;;;;-4.73;95.36;100184.81;5115039;28;20027;-43
2022/12/14 04:42:10;;;;;;;38.40;23.88;;;;;;;-4.69;95.65;100176.75;5113518;28;20040;-44
2022/12/14 04:44:41;;;;;;;36.78;23.50;;;;;;;-4.71;94.90;100170.75;5114692;28;20016;-42
2022/12/14 04:47:10;;;;;;;33.78;22.42;;;;;;;-4.72;95.99;100176.50;5114638;28;20058;-44
2022/12/14 04:49:41;;;;;;;35.22;22.38;;;;;;;-4.72;95.98;100175.66;5113925;28;20024;-42
2022/12/14 04:52:14;;;;;;;25.20;10.25;;;;;;;-4.63;95.67;100181.41;5114614;28;20444;-43
2022/12/14 04:54:52;;;;;;;36.60;23.45;;;;;;;-4.77;95.96;100176.91;5113965;28;20124;-43
2022/12/14 04:57:30;;;;;;;38.22;23.67;;;;;;;-4.72;95.88;100171.50;5114135;28;20114;-45
2022/12/14 04:59:56;;;;;;;34.78;22.45;;;;;;;-4.73;95.81;100169.72;5114151;28;20058;-42
2022/12/14 05:02:59;;;;;;;33.47;23.58;;;;;;;-4.71;95.99;100167.31;5114239;28;20081;-43
2022/12/14 05:05:47;;;;;;;35.78;22.88;;;;;;;-4.74;95.51;100155.38;5114311;28;20504;-44
2022/12/14 05:08:21;;;;;;;30.40;10.93;;;;;;;-4.64;95.54;100160.38;5114014;28;20024;-42
2022/12/14 05:10:55;;;;;;;33.20;21.90;;;;;;;-4.69;96.24;100159.16;5113487;28;20035;-43
2022/12/14 05:13:35;;;;;;;40.50;23.90;;;;;;;-4.65;95.80;100155.25;5114431;28;20054;-42
2022/12/14 05:16:01;;;;;;;24.40;10.13;;;;;;;-4.59;96.05;100152.34;5114113;28;20031;-43
2022/12/14 05:18:26;;;;;;;35.08;22.02;;;;;;;-4.66;95.89;100154.38;5113680;28;20207;-42
2022/12/14 05:20:51;;;;;;;37.13;22.90;;;;;;;-4.68;96.22;100145.81;5113740;28;20032;-44
2022/12/14 05:23:17;;;;;;;32.65;21.45;;;;;;;-4.67;95.85;100147.59;5112990;28;20367;-43
2022/12/14 05:25:42;;;;;;;35.90;21.75;;;;;;;-4.65;96.03;100148.59;5113061;28;20115;-42
2022/12/14 05:28:10;;;;;;;34.03;22.15;;;;;;;-4.67;95.58;100147.59;5114388;28;20058;-44
2022/12/14 05:30:35;;;;;;;35.17;22.83;;;;;;;-4.67;95.06;100145.06;5113099;28;20039;-42
2022/12/14 05:33:00;;;;;;;32.70;21.02;;;;;;;-4.66;96.01;100143.44;5113883;28;20360;-44
2022/12/14 05:35:26;;;;;;;33.13;22.05;;;;;;;-4.70;96.04;100144.84;5113975;28;20036;-46
2022/12/14 05:37:51;;;;;;;22.98;10.27;;;;;;;-4.58;96.36;100146.53;5112748;28;20023;-42
2022/12/14 05:40:16;;;;;;;23.40;9.80;;;;;;;-4.57;95.87;100140.75;5113689;28;20530;-44
2022/12/14 05:42:42;;;;;;;29.52;9.85;;;;;;;-4.56;96.43;100133.34;5113514;28;20028;-43
2022/12/14 05:45:10;;;;;;;36.08;22.15;;;;;;;-4.74;95.44;100144.47;5113014;28;20023;-43
2022/12/14 05:47:35;;;;;;;26.42;10.05;;;;;;;-4.58;95.98;100136.47;5113375;28;20065;-46
2022/12/14 05:50:00;;;;;;;30.63;20.52;;;;;;;-4.64;96.15;100134.38;5113403;28;20085;-44
2022/12/14 05:52:26;;;;;;;35.58;21.88;;;;;;;-4.62;96.13;100135.38;5113157;28;20020;-46
2022/12/14 05:54:52;;;;;;;34.88;22.35;;;;;;;-4.74;95.94;100137.78;5113121;28;20023;-42
2022/12/14 05:57:18;;;;;;;24.73;9.43;;;;;;;-4.59;96.38;100138.13;5113396;28;20033;-44
2022/12/14 05:59:43;;;;;;;33.38;21.63;;;;;;;-4.68;95.86;100144.97;5112366;28;20035;-46
2022/12/14 06:02:08;;;;;;;35.25;22.77;;;;;;;-4.66;95.30;100135.88;5113528;28;20027;-46
2022/12/14 06:04:34;;;;;;;33.53;22.08;;;;;;;-4.65;95.72;100137.66;5112801;28;20027;-44
2022/12/14 06:06:59;;;;;;;34.60;20.75;;;;;;;-4.62;96.06;100132.88;5112940;28;20076;-46
2022/12/14 06:09:24;;;;;;;36.25;22.65;;;;;;;-4.72;95.92;100138.81;5113262;28;20029;-47
2022/12/14 06:11:50;;;;;;;21.50;9.40;;;;;;;-4.62;96.75;100132.88;5112954;28;20106;-46
2022/12/14 06:14:16;;;;;;;35.30;21.40;;;;;;;-4.81;96.62;100125.53;5112956;28;20111;-46
2022/12/14 06:16:43;;;;;;;37.55;22.73;;;;;;;-4.82;96.42;100122.09;5113200;28;20070;-48
2022/12/14 06:19:10;;;;;;;36.42;23.13;;;;;;;-4.77;96.33;100125.00;5112967;28;20488;-45
2022/12/14 06:21:38;;;;;;;27.08;10.90;;;;;;;-4.70;96.76;100122.22;5112338;28;20081;-44
2022/12/14 06:24:04;;;;;;;24.83;9.32;;;;;;;-4.70;96.87;100123.84;5113188;28;20050;-43
2022/12/14 06:26:31;;;;;;;34.63;22.98;;;;;;;-4.93;97.51;100122.03;5113129;28;20085;-45
2022/12/14 06:28:57;;;;;;;34.40;22.55;;;;;;;-4.78;97.28;100117.34;5112897;28;20088;-44
2022/12/14 06:31:24;;;;;;;31.33;20.80;;;;;;;-4.83;97.13;100124.50;5113228;28;20471;-44
2022/12/14 06:33:52;;;;;;;34.35;22.35;;;;;;;-4.87;96.51;100125.03;5113558;28;20023;-44
2022/12/14 06:36:22;;;;;;;23.13;9.48;;;;;;;-4.76;96.87;100129.28;5117205;28;20034;-43
2022/12/14 06:38:49;;;;;;;35.05;20.83;;;;;;;-4.87;96.33;100128.41;5117163;28;20129;-44
2022/12/14 06:41:14;;;;;;;38.28;22.77;;;;;;;-4.91;97.25;100133.09;5116263;28;20453;-43
2022/12/14 06:43:39;;;;;;;33.72;22.70;;;;;;;-4.93;97.43;100139.63;5117014;28;20020;-44
2022/12/14 06:46:09;;;;;;;37.28;22.45;;;;;;;-5.01;97.78;100136.50;5117184;28;20028;-44
2022/12/14 06:48:34;;;;;;;33.85;22.58;;;;;;;-5.02;98.01;100135.63;5116294;28;20023;-43
2022/12/14 06:51:00;;;;;;;34.20;22.13;;;;;;;-4.96;97.93;100136.13;5116984;28;20015;-43
2022/12/14 06:53:26;;;;;;;33.92;21.85;;;;;;;-4.91;97.85;100128.94;5116932;28;20024;-46
2022/12/14 06:55:51;;;;;;;34.03;22.80;;;;;;;-4.94;97.54;100132.81;5115983;28;20034;-45
2022/12/14 06:58:16;;;;;;;35.03;21.67;;;;;;;-4.98;97.21;100132.59;5116956;28;20053;-43
2022/12/14 07:00:43;;;;;;;33.13;22.33;;;;;;;-5.05;97.14;100135.34;5116016;28;20042;-44
2022/12/14 07:03:08;;;;;;;35.00;22.13;;;;;;;-5.05;97.94;100144.53;5116238;28;20111;-45
2022/12/14 07:05:34;;;;;;;39.65;22.42;;;;;;;-5.15;98.33;100143.81;5116264;28;20123;-43
2022/12/14 07:07:59;;;;;;;23.70;9.65;;;;;;;-4.97;98.18;100148.53;5116605;28;20024;-46
2022/12/14 07:10:24;;;;;;;34.80;23.52;;;;;;;-5.16;99.29;100151.22;5116468;28;20344;-45
2022/12/14 07:12:50;;;;;;;20.38;8.73;;;;;;;-5.01;98.94;100149.94;5116291;28;20032;-48
2022/12/14 07:15:15;;;;;;;26.77;10.13;;;;;;;-4.99;99.16;100145.91;5116261;28;20574;-47
2022/12/14 07:17:40;;;;;;;23.13;9.88;;;;;;;-5.00;98.49;100143.28;5115458;28;20032;-44
2022/12/14 07:20:06;;;;;;;25.55;10.13;;;;;;;-5.01;98.20;100152.47;5116380;28;20503;-45
2022/12/14 07:22:33;;;;;;;35.80;22.48;;;;;;;-5.25;98.57;100143.81;5115678;28;20070;-43
2022/12/14 07:24:58;;;;;;;36.60;23.02;;;;;;;-5.17;99.03;100149.47;5115641;28;20383;-44
2022/12/14 07:27:24;;;;;;;26.27;10.13;;;;;;;-5.10;99.21;100146.66;5116304;28;20479;-43
2022/12/14 07:29:49;;;;;;;33.45;21.65;;;;;;;-5.32;98.83;100149.97;5115640;28;20027;-44
2022/12/14 07:32:14;;;;;;;39.13;21.48;;;;;;;-5.49;98.60;100151.13;5115697;28;20020;-44
2022/12/14 07:34:40;;;;;;;24.10;9.60;;;;;;;-5.29;98.62;100146.84;5115801;28;20055;-45
2022/12/14 07:37:05;;;;;;;18.98;9.15;;;;;;;-5.33;98.32;100152.38;5115692;28;20027;-44
2022/12/14 07:39:30;;;;;;;32.67;21.25;;;;;;;-5.44;99.46;100154.00;5115541;28;20020;-43
2022/12/14 07:41:56;;;;;;;36.53;21.85;;;;;;;-5.48;99.59;100146.97;5115625;28;20507;-44
2022/12/14 07:44:21;;;;;;;35.55;22.88;;;;;;;-5.47;99.43;100144.56;5115282;28;20104;-44
2022/12/14 07:46:46;;;;;;;32.83;21.80;;;;;;;-5.57;99.66;100146.22;5114660;28;20028;-44
2022/12/14 07:49:12;;;;;;;23.77;9.77;;;;;;;-5.47;99.73;100151.25;5115710;28;20024;-43
2022/12/14 07:51:40;;;;;;;36.50;21.40;;;;;;;-5.58;100.00;100154.50;5114565;28;20019;-43
2022/12/14 07:54:06;;;;;;;24.40;9.48;;;;;;;-5.51;99.80;100152.63;5115929;28;20024;-45
2022/12/14 07:56:35;;;;;;;34.15;22.23;;;;;;;-5.64;100.00;100155.75;5115369;28;20049;-43
2022/12/14 07:59:03;;;;;;;35.53;22.80;;;;;;;-5.87;99.99;100156.34;5115143;28;20020;-47
2022/12/14 08:01:30;;;;;;;31.83;21.63;;;;;;;-5.89;100.00;100162.00;5115425;28;20054;-44
2022/12/14 08:03:59;;;;;;;34.05;21.92;;;;;;;-5.90;100.00;100162.75;5115060;28;20106;-42
2022/12/14 08:06:27;;;;;;;36.00;21.42;;;;;;;-5.91;100.00;100169.41;5115161;28;20106;-47
2022/12/14 08:08:54;;;;;;;34.03;22.25;;;;;;;-6.04;100.00;100170.03;5115329;28;20043;-45
2022/12/14 08:11:23;;;;;;;35.63;23.48;;;;;;;-6.04;100.00;100164.13;5115027;28;20454;-43
2022/12/14 08:14:05;;;;;;;24.58;10.85;;;;;;;-5.88;100.00;100166.25;5114588;28;20027;-44
2022/12/14 08:16:30;;;;;;;25.60;9.95;;;;;;;-5.92;100.00;100167.63;5115230;28;20020;-43
2022/12/14 08:18:57;;;;;;;35.85;24.23;;;;;;;-6.20;100.00;100179.50;5115056;28;20378;-44
2022/12/14 08:21:24;;;;;;;40.97;25.50;;;;;;;-6.26;100.00;100174.84;5114865;28;20116;-44
2022/12/14 08:23:50;;;;;;;21.48;9.63;;;;;;;-6.08;100.00;100180.56;5115057;28;20281;-43
2022/12/14 08:26:15;;;;;;;47.17;26.23;;;;;;;-6.31;100.00;100181.09;5114934;28;20055;-41
2022/12/14 08:28:41;;;;;;;45.97;28.60;;;;;;;-6.33;100.00;100185.97;5114229;28;20122;-41
2022/12/14 08:31:17;;;;;;;42.50;26.77;;;;;;;-6.34;100.00;100174.19;5115125;28;20036;-44
2022/12/14 08:33:44;;;;;;;39.63;26.70;;;;;;;-6.34;100.00;100171.69;5114082;28;20023;-42
2022/12/14 08:36:15;;;;;;;44.95;27.25;;;;;;;-6.50;100.00;100183.66;5115088;28;20125;-45
2022/12/14 08:38:41;;;;;;;42.92;28.10;;;;;;;-6.50;100.00;100181.16;5114674;28;20023;-45
2022/12/14 08:41:08;;;;;;;40.90;27.83;;;;;;;-6.51;100.00;100191.91;5114307;28;20030;-42
2022/12/14 08:43:35;;;;;;;25.95;11.30;;;;;;;-6.38;100.00;100189.69;5114462;28;20427;-42
2022/12/14 08:46:00;;;;;;;42.65;28.63;;;;;;;-6.57;100.00;100184.75;5114668;28;20024;-45
2022/12/14 08:48:26;;;;;;;26.48;12.05;;;;;;;-6.42;100.00;100170.13;5114369;28;20030;-42
2022/12/14 08:50:51;;;;;;;38.67;28.95;;;;;;;-6.36;100.00;100178.19;5114442;28;20055;-42
2022/12/14 08:53:17;;;;;;;25.90;11.98;;;;;;;-6.34;100.00;100179.22;5114538;28;20029;-42
2022/12/14 08:55:43;;;;;;;39.25;28.20;;;;;;;-6.32;100.00;100172.69;5113687;28;20032;-44
2022/12/14 08:58:09;;;;;;;47.20;27.77;;;;;;;-6.48;100.00;100182.13;5114386;28;20155;-44
2022/12/14 09:00:37;;;;;;;38.65;27.90;;;;;;;-6.54;100.00;100179.13;5113882;28;20092;-43
2022/12/14 09:03:03;;;;;;;40.15;11.68;;;;;;;-6.37;100.00;100191.47;5113988;28;20114;-43
2022/12/14 09:05:28;;;;;;;44.97;28.48;;;;;;;-6.48;100.00;100184.66;5114470;28;20098;-43
2022/12/14 09:07:53;;;;;;;43.67;29.40;;;;;;;-6.48;100.00;100182.13;5113655;28;20029;-43
2022/12/14 09:10:19;;;;;;;39.60;27.27;;;;;;;-6.43;100.00;100185.91;5113687;28;20035;-43
2022/12/14 09:12:44;;;;;;;26.40;11.05;;;;;;;-6.33;100.00;100198.50;5113870;28;20108;-42
2022/12/14 09:15:10;;;;;;;25.13;10.93;;;;;;;-6.28;100.00;100194.75;5114125;28;20038;-43
2022/12/14 09:17:36;;;;;;;41.92;26.33;;;;;;;-6.30;100.00;100193.78;5113133;28;20020;-43
2022/12/14 09:20:02;;;;;;;35.10;24.45;;;;;;;-6.27;100.00;100193.16;5073518;28;20099;-43
2022/12/14 09:22:27;;;;;;;36.15;23.63;;;;;;;-6.20;100.00;100199.56;5073191;28;20040;-42
2022/12/14 09:24:53;;;;;;;21.45;10.50;;;;;;;-6.13;100.00;100197.72;5072560;28;20198;-43
2022/12/14 09:27:18;;;;;;;34.70;24.58;;;;;;;-6.16;100.00;100202.47;5073193;28;20070;-43
2022/12/14 09:29:44;;;;;;;35.55;23.98;;;;;;;-6.11;100.00;100205.38;5072296;28;20032;-44
2022/12/14 09:32:09;;;;;;;25.83;11.20;;;;;;;-6.03;100.00;100206.91;5073335;28;20052;-42
2022/12/14 09:34:35;;;;;;;32.83;24.15;;;;;;;-6.01;100.00;100207.91;5072690;28;20050;-45
2022/12/14 09:37:03;;;;;;;22.17;9.88;;;;;;;-5.93;100.00;100212.69;5072706;28;20028;-42
2022/12/14 09:39:32;;;;;;;32.78;23.25;;;;;;;-5.95;100.00;100203.38;5073308;28;20067;-42
2022/12/14 09:42:31;;;;;;;29.23;10.50;;;;;;;-5.84;100.00;100196.75;5072625;28;20050;-42
2022/12/14 09:45:03;;;;;;;34.38;22.23;;;;;;;-5.77;100.00;100193.16;5072950;28;20440;-43
2022/12/14 09:47:37;;;;;;;31.65;21.98;;;;;;;-5.76;100.00;100194.88;5073049;28;20479;-43
2022/12/14 09:50:05;;;;;;;24.13;9.65;;;;;;;-5.66;100.00;100194.03;5075057;28;20043;-42
2022/12/14 09:52:47;;;;;;;23.13;9.65;;;;;;;-5.58;100.00;100199.69;5089776;28;20024;-43
2022/12/14 09:55:30;;;;;;;30.83;21.70;;;;;;;-5.30;100.00;100197.81;5093271;28;20031;-43
2022/12/14 09:58:04;;;;;;;31.85;21.23;;;;;;;-4.82;100.00;100200.03;5092301;28;20024;-42
2022/12/14 10:00:58;;;;;;;29.92;20.23;;;;;;;-4.46;100.00;100202.84;5092879;28;20047;-43
2022/12/14 10:03:42;;;;;;;18.58;8.75;;;;;;;-4.19;100.00;100185.66;5085174;28;20044;-46
2022/12/14 10:06:35;;;;;;;28.73;19.13;;;;;;;-3.66;96.90;100188.00;5092609;28;20035;-43
2022/12/14 10:09:21;;;;;;;23.13;9.20;;;;;;;-3.37;97.72;100190.19;5092622;28;20024;-42
2022/12/14 10:11:53;;;;;;;28.85;18.20;;;;;;;-3.07;93.70;100184.75;5092595;28;20022;-43
2022/12/14 10:14:18;;;;;;;28.45;17.85;;;;;;;-2.91;91.84;100179.19;5092966;28;20509;-45
2022/12/14 10:17:09;;;;;;;28.45;18.52;;;;;;;-2.82;90.81;100184.91;5092347;28;20024;-41
2022/12/14 10:19:40;;;;;;;26.10;17.20;;;;;;;-2.67;89.90;100188.53;5092031;28;20043;-42
2022/12/14 10:22:15;;;;;;;27.35;16.13;;;;;;;-2.60;87.92;100188.97;5092907;28;20031;-45
2022/12/14 10:24:43;;;;;;;21.67;8.02;;;;;;;-2.40;88.91;100181.16;5092114;28;20467;-43
2022/12/14 10:27:16;;;;;;;27.60;16.10;;;;;;;-2.47;87.03;100186.53;5092263;28;20016;-41
2022/12/14 10:29:47;;;;;;;26.02;17.25;;;;;;;-2.40;86.42;100188.75;5092515;28;20028;-41
2022/12/14 10:32:20;;;;;;;25.77;16.10;;;;;;;-2.29;84.58;100186.97;5092742;28;20107;-42
2022/12/14 10:34:46;;;;;;;29.75;17.80;;;;;;;-2.25;85.09;100193.09;5092056;28;20102;-42
2022/12/14 10:37:36;;;;;;;21.20;9.02;;;;;;;-1.98;87.04;100191.63;5092742;28;20153;-44
2022/12/14 10:40:07;;;;;;;26.65;15.95;;;;;;;-2.09;84.10;100190.88;5091973;28;20115;-42
2022/12/14 10:42:35;;;;;;;19.92;8.00;;;;;;;-1.86;85.07;100199.16;5092185;28;20024;-41
2022/12/14 10:45:23;;;;;;;28.38;16.00;;;;;;;-1.80;84.53;100201.25;5092493;28;20115;-41
2022/12/14 10:47:56;;;;;;;25.95;16.50;;;;;;;-1.66;83.12;100198.88;5091815;28;20039;-43
2022/12/14 10:50:31;;;;;;;26.20;15.95;;;;;;;-1.47;81.71;100195.06;5092572;28;20031;-41
2022/12/14 10:52:58;;;;;;;25.02;15.85;;;;;;;-1.16;80.14;100197.13;5092225;28;20035;-41
2022/12/14 10:55:31;;;;;;;25.55;16.95;;;;;;;-1.01;80.43;100205.72;5092240;28;20024;-42
2022/12/14 10:57:56;;;;;;;23.95;16.30;;;;;;;-0.86;79.12;100194.81;5092665;28;20024;-41
2022/12/14 11:00:22;;;;;;;24.35;15.32;;;;;;;-0.65;78.49;100194.47;5092051;28;20097;-42
2022/12/14 11:02:52;;;;;;;22.20;15.55;;;;;;;-0.37;76.02;100187.81;5091431;28;20035;-42
2022/12/14 11:05:22;;;;;;;24.45;15.35;;;;;;;-0.12;75.38;100191.00;5092355;28;20078;-43
2022/12/14 11:07:48;;;;;;;27.38;16.60;;;;;;;-0.15;75.07;100180.69;5092006;28;20028;-43
2022/12/14 11:10:18;;;;;;;29.67;18.80;;;;;;;0.36;73.70;100186.28;5091743;28;20028;-42
2022/12/14 11:12:58;;;;;;;29.73;19.42;;;;;;;0.30;74.51;100192.75;5092037;28;20483;-42
2022/12/14 11:15:30;;;;;;;27.85;18.40;;;;;;;0.29;72.20;100190.97;5091632;28;20032;-47
2022/12/14 11:18:15;;;;;;;35.03;20.58;;;;;;;0.43;72.14;100188.41;5092733;28;20027;-44
2022/12/14 11:20:54;;;;;;;31.33;19.80;;;;;;;0.88;71.72;100186.81;5092716;28;20039;-42
2022/12/14 11:23:24;;;;;;;30.80;18.70;;;;;;;0.74;70.03;100195.31;5095348;28;20111;-42
2022/12/14 11:25:53;;;;;;;28.98;18.08;;;;;;;0.69;68.99;100192.47;5095592;28;20077;-47
2022/12/14 11:28:19;;;;;;;25.98;16.40;;;;;;;0.72;69.21;100181.63;5095535;28;20028;-43
2022/12/14 11:31:15;;;;;;;22.90;14.77;;;;;;;0.77;68.76;100190.41;5095138;28;20085;-44
2022/12/14 11:33:46;;;;;;;25.20;15.63;;;;;;;0.84;66.68;100196.69;5095472;28;20328;-42
2022/12/14 11:36:34;;;;;;;27.77;16.80;;;;;;;0.78;70.39;100194.69;5095579;28;20035;-44
2022/12/14 11:39:02;;;;;;;24.60;15.25;;;;;;;0.41;67.05;100190.84;5095566;28;20052;-44
2022/12/14 11:41:34;;;;;;;22.25;15.23;;;;;;;0.21;67.29;100197.25;5095399;28;20028;-45